Private Wetterstation Wechselburg
Wetterdaten: Freitag, 22.04.2016
Datum Zeit Temp. +2m Bodentemp. Temp.+5cm Temp. Wind Windchill X Diff Temp. Feuchte +2m Feuchte +5cm Sonnenschein Luftdruck Regen Wind Richtung Richtung Sonnenschein Taupunkt Windchill Windben
22.04.2016 00:00 3,8 C 20,8 C 4,4 C 3,5 C 2,8 C 0,0 C 81 % 85 % 0 % 1020,8 hPa 0,0 l/m 0,0 km/h (0 Bft) N-NW 337 0 min 0,8 C 2,8 C 0,0 km/h (0 Bft)
22.04.2016 00:05 3,6 C 20,8 C 4,3 C 3,3 C 2,7 C 0,0 C 81 % 85 % 0 % 1020,8 hPa 0,0 l/m 0,0 km/h (0 Bft) N-NW 337 0 min 0,7 C 2,7 C 0,0 km/h (0 Bft)
22.04.2016 00:10 3,5 C 20,8 C 4,1 C 3,2 C 2,7 C 0,0 C 81 % 85 % 0 % 1021,0 hPa 0,0 l/m 0,0 km/h (0 Bft) N-NW 337 0 min 0,6 C 2,7 C 0,0 km/h (0 Bft)
22.04.2016 00:15 3,5 C 20,8 C 4,1 C 3,2 C 2,5 C 0,0 C 81 % 85 % 0 % 1021,0 hPa 0,0 l/m 0,0 km/h (0 Bft) N-NW 337 0 min 0,6 C 2,5 C 0,0 km/h (0 Bft)
22.04.2016 00:20 3,3 C 20,8 C 4,1 C 3,0 C 2,3 C 0,0 C 81 % 85 % 0 % 1021,0 hPa 0,0 l/m 0,0 km/h (0 Bft) N-NW 337 0 min 0,4 C 2,3 C 0,0 km/h (0 Bft)
22.04.2016 00:25 3,1 C 20,8 C 4,1 C 2,8 C 2,2 C 0,0 C 81 % 85 % 0 % 1021,0 hPa 0,0 l/m 0,0 km/h (0 Bft) N-NW 337 0 min 0,2 C 2,2 C 0,0 km/h (0 Bft)
22.04.2016 00:30 3,1 C 20,8 C 4,0 C 2,8 C 2,1 C 0,0 C 81 % 86 % 0 % 1020,9 hPa 0,0 l/m 0,0 km/h (0 Bft) N-NW 337 0 min 0,2 C 2,1 C 0,0 km/h (0 Bft)
22.04.2016 00:35 2,9 C 20,8 C 3,9 C 2,6 C 2,0 C 0,0 C 82 % 86 % 0 % 1020,9 hPa 0,0 l/m 0,0 km/h (0 Bft) N-NW 337 0 min 0,1 C 2,0 C 0,0 km/h (0 Bft)
22.04.2016 00:44 2,7 C 20,8 C 3,7 C 2,4 C 1,8 C 0,0 C 82 % 86 % 0 % 1020,9 hPa 0,0 l/m 0,0 km/h (0 Bft) N 0 0 min -0,1 C 1,8 C 0,0 km/h (0 Bft)
22.04.2016 00:50 2,7 C 20,8 C 3,6 C 2,4 C 1,7 C 0,0 C 82 % 86 % 0 % 1020,7 hPa 0,0 l/m 0,0 km/h (0 Bft) N-NW 337 0 min -0,1 C 1,7 C 0,0 km/h (0 Bft)
22.04.2016 00:55 2,5 C 20,7 C 3,5 C 2,3 C 1,8 C 0,0 C 83 % 86 % 0 % 1020,7 hPa 0,0 l/m 0,0 km/h (0 Bft) NW 315 0 min -0,1 C 1,8 C 0,0 km/h (0 Bft)
22.04.2016 01:00 2,5 C 20,8 C 3,5 C 2,2 C 1,7 C 0,0 C 83 % 86 % 0 % 1020,7 hPa 0,0 l/m 0,0 km/h (0 Bft) NW 315 0 min -0,1 C 1,7 C 0,0 km/h (0 Bft)
22.04.2016 01:05 2,4 C 20,8 C 3,3 C 2,2 C 1,7 C 0,0 C 83 % 87 % 0 % 1020,7 hPa 0,0 l/m 0,0 km/h (0 Bft) NW 315 0 min -0,2 C 1,7 C 0,0 km/h (0 Bft)
22.04.2016 01:10 2,4 C 20,8 C 3,3 C 2,2 C 1,7 C 0,0 C 83 % 87 % 0 % 1021,1 hPa 0,0 l/m 0,0 km/h (0 Bft) NW 315 0 min -0,2 C 1,7 C 0,0 km/h (0 Bft)
22.04.2016 01:15 2,3 C 20,8 C 3,1 C 2,1 C 1,6 C 0,0 C 83 % 87 % 0 % 1021,1 hPa 0,0 l/m 0,0 km/h (0 Bft) NW 315 0 min -0,3 C 1,6 C 0,0 km/h (0 Bft)
22.04.2016 01:20 2,1 C 20,7 C 3,2 C 1,9 C 1,5 C 0,0 C 83 % 87 % 0 % 1021,1 hPa 0,0 l/m 0,0 km/h (0 Bft) NW 315 0 min -0,5 C 1,5 C 0,0 km/h (0 Bft)
22.04.2016 01:25 2,0 C 20,7 C 3,2 C 1,8 C 1,3 C 0,0 C 83 % 87 % 0 % 1021,1 hPa 0,0 l/m 0,0 km/h (0 Bft) NW 315 0 min -0,6 C 1,3 C 0,0 km/h (0 Bft)
22.04.2016 01:30 2,0 C 20,7 C 3,1 C 1,7 C 1,2 C 0,0 C 83 % 87 % 0 % 1020,9 hPa 0,0 l/m 0,0 km/h (0 Bft) NW 315 0 min -0,6 C 1,2 C 0,0 km/h (0 Bft)
22.04.2016 01:35 1,9 C 20,6 C 3,1 C 1,6 C 1,1 C 0,0 C 83 % 87 % 0 % 1020,9 hPa 0,0 l/m 0,0 km/h (0 Bft) NW 315 0 min -0,7 C 1,1 C 0,0 km/h (0 Bft)
22.04.2016 01:40 1,9 C 20,6 C 3,1 C 1,6 C 1,1 C 0,0 C 84 % 87 % 0 % 1020,9 hPa 0,0 l/m 0,0 km/h (0 Bft) NW 315 0 min -0,5 C 1,1 C 0,0 km/h (0 Bft)
22.04.2016 01:45 1,7 C 20,5 C 2,9 C 1,5 C 1,1 C 0,0 C 83 % 87 % 0 % 1020,9 hPa 0,0 l/m 0,0 km/h (0 Bft) NW 315 0 min -0,9 C 1,1 C 0,0 km/h (0 Bft)
22.04.2016 01:50 1,6 C 20,6 C 2,8 C 1,5 C 1,2 C 0,0 C 83 % 87 % 0 % 1020,3 hPa 0,0 l/m 0,0 km/h (0 Bft) NW 315 0 min -1,0 C 1,2 C 0,0 km/h (0 Bft)
22.04.2016 01:55 1,6 C 20,5 C 2,8 C 1,5 C 1,3 C 0,0 C 83 % 87 % 0 % 1020,3 hPa 0,0 l/m 0,0 km/h (0 Bft) NW 315 0 min -1,0 C 1,3 C 0,0 km/h (0 Bft)
22.04.2016 02:00 1,6 C 20,5 C 2,9 C 1,5 C 1,2 C 0,0 C 83 % 88 % 0 % 1020,3 hPa 0,0 l/m 0,0 km/h (0 Bft) NW 315 0 min -1,0 C 1,2 C 0,0 km/h (0 Bft)
22.04.2016 02:05 1,5 C 20,4 C 2,8 C 1,4 C 1,1 C 0,0 C 84 % 88 % 0 % 1020,3 hPa 0,0 l/m 0,0 km/h (0 Bft) NW 315 0 min -0,9 C 1,1 C 0,0 km/h (0 Bft)
22.04.2016 02:10 1,5 C 20,5 C 2,9 C 1,3 C 1,0 C 0,0 C 84 % 88 % 0 % 1020,8 hPa 0,0 l/m 0,0 km/h (0 Bft) W-NW 292 0 min -0,9 C 1,0 C 0,0 km/h (0 Bft)
22.04.2016 02:15 1,5 C 20,5 C 2,7 C 1,4 C 1,1 C 0,0 C 84 % 88 % 0 % 1020,8 hPa 0,0 l/m 0,0 km/h (0 Bft) W-NW 292 0 min -0,9 C 1,1 C 0,0 km/h (0 Bft)
22.04.2016 02:20 1,5 C 20,5 C 2,5 C 1,4 C 1,1 C 0,0 C 84 % 88 % 0 % 1020,8 hPa 0,0 l/m 0,0 km/h (0 Bft) NW 315 0 min -0,9 C 1,1 C 0,0 km/h (0 Bft)
22.04.2016 02:25 1,3 C 20,5 C 2,5 C 1,2 C 1,0 C 0,0 C 84 % 88 % 0 % 1020,8 hPa 0,0 l/m 0,0 km/h (0 Bft) W 270 0 min -1,1 C 1,0 C 0,0 km/h (0 Bft)
22.04.2016 02:30 1,3 C 20,5 C 2,4 C 1,2 C 1,0 C 0,0 C 84 % 88 % 0 % 1020,8 hPa 0,0 l/m 0,0 km/h (0 Bft) W 270 0 min -1,1 C 1,0 C 0,0 km/h (0 Bft)
22.04.2016 02:35 1,2 C 20,5 C 2,4 C 1,1 C 1,0 C 0,0 C 84 % 88 % 0 % 1020,8 hPa 0,0 l/m 0,0 km/h (0 Bft) W 270 0 min -1,2 C 1,0 C 0,0 km/h (0 Bft)
22.04.2016 02:40 1,2 C 20,4 C 2,4 C 1,1 C 1,0 C 0,0 C 85 % 88 % 0 % 1020,8 hPa 0,0 l/m 0,0 km/h (0 Bft) W 270 0 min -1,0 C 1,0 C 0,0 km/h (0 Bft)
22.04.2016 02:45 1,2 C 20,4 C 2,4 C 1,1 C 1,0 C 0,0 C 85 % 88 % 0 % 1020,8 hPa 0,0 l/m 0,0 km/h (0 Bft) W-SW 247 0 min -1,0 C 1,0 C 0,0 km/h (0 Bft)
22.04.2016 02:50 1,3 C 20,4 C 2,5 C 1,2 C 1,1 C 0,0 C 85 % 88 % 0 % 1020,8 hPa 0,0 l/m 0,0 km/h (0 Bft) SW 225 0 min -0,9 C 1,1 C 0,0 km/h (0 Bft)
22.04.2016 02:55 1,2 C 20,4 C 2,4 C 1,1 C 1,0 C 0,0 C 85 % 89 % 0 % 1020,8 hPa 0,0 l/m 0,0 km/h (0 Bft) W-SW 247 0 min -1,0 C 1,0 C 0,0 km/h (0 Bft)
22.04.2016 03:00 1,2 C 20,3 C 2,4 C 1,1 C 1,0 C 0,0 C 85 % 89 % 0 % 1020,8 hPa 0,0 l/m 0,0 km/h (0 Bft) W-SW 247 0 min -1,0 C 1,0 C 0,0 km/h (0 Bft)
22.04.2016 03:05 1,1 C 20,4 C 2,3 C 1,0 C 0,8 C 0,0 C 85 % 89 % 0 % 1020,8 hPa 0,0 l/m 0,0 km/h (0 Bft) W-SW 247 0 min -1,1 C 0,8 C 0,0 km/h (0 Bft)
22.04.2016 03:10 1,1 C 20,4 C 2,3 C 1,0 C 0,9 C 0,0 C 85 % 89 % 0 % 1020,5 hPa 0,0 l/m 0,0 km/h (0 Bft) SW 225 0 min -1,1 C 0,9 C 0,0 km/h (0 Bft)
22.04.2016 03:15 1,1 C 20,4 C 2,1 C 1,1 C 1,0 C 0,0 C 85 % 88 % 0 % 1020,5 hPa 0,0 l/m 0,0 km/h (0 Bft) SW 225 0 min -1,1 C 1,0 C 0,0 km/h (0 Bft)
22.04.2016 03:20 1,1 C 20,4 C 2,1 C 1,1 C 1,0 C 0,0 C 85 % 88 % 0 % 1020,5 hPa 0,0 l/m 0,0 km/h (0 Bft) W-SW 247 0 min -1,1 C 1,0 C 0,0 km/h (0 Bft)
22.04.2016 03:25 1,1 C 20,3 C 2,0 C 1,0 C 0,7 C 0,0 C 85 % 88 % 0 % 1020,5 hPa 0,0 l/m 0,0 km/h (0 Bft) W 270 0 min -1,1 C 0,7 C 0,0 km/h (0 Bft)
22.04.2016 03:30 0,9 C 20,4 C 1,9 C 0,8 C 0,5 C 0,0 C 85 % 88 % 0 % 1020,9 hPa 0,0 l/m 0,0 km/h (0 Bft) W-NW 292 0 min -1,3 C 0,5 C 0,0 km/h (0 Bft)
22.04.2016 03:35 0,8 C 20,3 C 1,9 C 0,7 C 0,4 C 0,0 C 85 % 88 % 0 % 1020,9 hPa 0,0 l/m 0,0 km/h (0 Bft) W 270 0 min -1,4 C 0,4 C 0,0 km/h (0 Bft)
22.04.2016 03:41 0,7 C 20,3 C 1,8 C 0,5 C 0,2 C 0,0 C 85 % 88 % 0 % 1020,9 hPa 0,0 l/m 0,0 km/h (0 Bft) N 0 0 min -1,5 C 0,2 C 0,0 km/h (0 Bft)
22.04.2016 03:50 0,5 C 20,3 C 1,7 C 0,4 C 0,1 C 0,0 C 85 % 89 % 0 % 1020,4 hPa 0,0 l/m 0,0 km/h (0 Bft) W 270 0 min -1,7 C 0,1 C 0,0 km/h (0 Bft)
22.04.2016 03:55 0,5 C 20,3 C 1,6 C 0,4 C 0,3 C 0,0 C 85 % 89 % 0 % 1020,4 hPa 0,0 l/m 0,0 km/h (0 Bft) O-NO 67 0 min -1,7 C 0,3 C 0,0 km/h (0 Bft)
22.04.2016 04:00 0,5 C 20,2 C 1,6 C 0,4 C 0,3 C 0,0 C 86 % 89 % 0 % 1020,4 hPa 0,0 l/m 0,0 km/h (0 Bft) NO 45 0 min -1,6 C 0,3 C 0,0 km/h (0 Bft)
22.04.2016 04:05 0,5 C 20,2 C 1,6 C 0,5 C 0,4 C 0,0 C 86 % 89 % 0 % 1020,4 hPa 0,0 l/m 0,0 km/h (0 Bft) NO 45 0 min -1,6 C 0,4 C 0,0 km/h (0 Bft)
22.04.2016 04:10 0,4 C 20,2 C 1,6 C 0,4 C 0,4 C 0,0 C 86 % 89 % 0 % 1021,0 hPa 0,0 l/m 0,0 km/h (0 Bft) NO 45 0 min -1,7 C 0,4 C 0,0 km/h (0 Bft)
22.04.2016 04:15 0,4 C 20,2 C 1,6 C 0,3 C 0,2 C 0,0 C 86 % 89 % 0 % 1021,0 hPa 0,0 l/m 0,0 km/h (0 Bft) N-NO 22 0 min -1,7 C 0,2 C 0,0 km/h (0 Bft)
22.04.2016 04:20 0,5 C 20,2 C 1,6 C 0,4 C 0,2 C 0,0 C 86 % 89 % 0 % 1021,0 hPa 0,0 l/m 0,0 km/h (0 Bft) N-NW 337 0 min -1,6 C 0,2 C 0,0 km/h (0 Bft)
22.04.2016 04:25 0,4 C 20,2 C 1,5 C 0,3 C 0,2 C 0,0 C 86 % 89 % 0 % 1021,0 hPa 0,0 l/m 0,0 km/h (0 Bft) NO 45 0 min -1,7 C 0,2 C 0,0 km/h (0 Bft)
22.04.2016 04:30 0,3 C 20,2 C 1,5 C 0,2 C 0,0 C 0,0 C 86 % 89 % 0 % 1020,4 hPa 0,0 l/m 0,0 km/h (0 Bft) SW 225 0 min -1,8 C 0,0 C 0,0 km/h (0 Bft)
22.04.2016 04:35 0,3 C 20,2 C 1,3 C 0,2 C -0,1 C 0,0 C 86 % 89 % 0 % 1020,4 hPa 0,0 l/m 0,0 km/h (0 Bft) SW 225 0 min -1,8 C -0,1 C 0,0 km/h (0 Bft)
22.04.2016 04:40 0,2 C 20,1 C 1,3 C 0,0 C -0,3 C 0,0 C 86 % 89 % 0 % 1020,4 hPa 0,0 l/m 0,0 km/h (0 Bft) SW 225 0 min -1,9 C -0,3 C 0,0 km/h (0 Bft)
22.04.2016 04:45 0,0 C 20,0 C 1,2 C -0,1 C -0,4 C 0,0 C 86 % 89 % 0 % 1020,4 hPa 0,0 l/m 0,0 km/h (0 Bft) N-NW 337 0 min -2,1 C -0,4 C 0,0 km/h (0 Bft)
22.04.2016 04:50 -0,1 C 20,1 C 1,3 C -0,2 C -0,4 C 0,0 C 86 % 89 % 0 % 1020,6 hPa 0,0 l/m 0,0 km/h (0 Bft) N-NW 337 0 min -2,2 C -0,4 C 0,0 km/h (0 Bft)
22.04.2016 04:55 -0,1 C 20,0 C 1,2 C -0,3 C -0,6 C 0,0 C 86 % 89 % 0 % 1020,6 hPa 0,0 l/m 0,0 km/h (0 Bft) W-SW 247 0 min -2,2 C -0,6 C 0,0 km/h (0 Bft)
22.04.2016 05:00 -0,2 C 20,0 C 1,2 C -0,3 C -0,6 C 0,0 C 86 % 89 % 0 % 1020,6 hPa 0,0 l/m 0,0 km/h (0 Bft) NO 45 0 min -2,3 C -0,6 C 0,0 km/h (0 Bft)
22.04.2016 05:05 -0,1 C 20,0 C 1,2 C -0,2 C -0,5 C 0,0 C 86 % 90 % 0 % 1020,6 hPa 0,0 l/m 0,0 km/h (0 Bft) W-SW 247 0 min -2,2 C -0,5 C 0,0 km/h (0 Bft)
22.04.2016 05:10 -0,1 C 20,0 C 1,2 C -0,3 C -0,6 C 0,0 C 86 % 90 % 0 % 1020,7 hPa 0,0 l/m 0,0 km/h (0 Bft) S-SW 202 0 min -2,2 C -0,6 C 0,0 km/h (0 Bft)
22.04.2016 05:15 -0,1 C 20,0 C 1,1 C -0,2 C -0,5 C 0,0 C 86 % 90 % 0 % 1020,7 hPa 0,0 l/m 0,0 km/h (0 Bft) W-SW 247 0 min -2,2 C -0,5 C 0,0 km/h (0 Bft)
22.04.2016 05:20 -0,3 C 20,0 C 1,1 C -0,4 C -0,6 C 0,0 C 86 % 90 % 0 % 1020,7 hPa 0,0 l/m 0,0 km/h (0 Bft) N-NW 337 0 min -2,3 C -0,6 C 0,0 km/h (0 Bft)
22.04.2016 05:25 -0,3 C 20,0 C 1,1 C -0,4 C -0,7 C 0,0 C 86 % 90 % 0 % 1020,7 hPa 0,0 l/m 0,0 km/h (0 Bft) N-NW 337 0 min -2,3 C -0,7 C 0,0 km/h (0 Bft)
22.04.2016 05:30 -0,4 C 20,0 C 0,9 C -0,5 C -0,6 C 0,0 C 86 % 90 % 0 % 1020,9 hPa 0,0 l/m 0,0 km/h (0 Bft) NO 45 0 min -2,4 C -0,6 C 0,0 km/h (0 Bft)
22.04.2016 05:35 -0,5 C 20,1 C 0,9 C -0,6 C -0,7 C 0,0 C 86 % 90 % 0 % 1020,9 hPa 0,0 l/m 0,0 km/h (0 Bft) N-NO 22 0 min -2,5 C -0,7 C 0,0 km/h (0 Bft)
22.04.2016 05:40 -0,5 C 20,1 C 0,8 C -0,6 C -0,7 C 0,0 C 86 % 89 % 0 % 1020,9 hPa 0,0 l/m 0,0 km/h (0 Bft) NO 45 0 min -2,5 C -0,7 C 0,0 km/h (0 Bft)
22.04.2016 05:45 -0,6 C 20,0 C 0,9 C -0,6 C -0,7 C 0,0 C 86 % 90 % 0 % 1020,9 hPa 0,0 l/m 0,0 km/h (0 Bft) N-NO 22 0 min -2,6 C -0,7 C 0,0 km/h (0 Bft)
22.04.2016 05:50 -0,5 C 20,0 C 0,9 C -0,6 C -0,8 C 0,0 C 86 % 90 % 0 % 1021,1 hPa 0,0 l/m 0,0 km/h (0 Bft) N-NO 22 0 min -2,5 C -0,8 C 0,0 km/h (0 Bft)
22.04.2016 05:55 -0,5 C 20,0 C 0,9 C -0,6 C -0,8 C 0,0 C 86 % 90 % 0 % 1021,1 hPa 0,0 l/m 0,0 km/h (0 Bft) W-SW 247 0 min -2,5 C -0,8 C 0,0 km/h (0 Bft)
22.04.2016 06:00 -0,5 C 20,0 C 0,9 C -0,6 C -0,9 C 0,0 C 86 % 90 % 0 % 1021,1 hPa 0,0 l/m 0,0 km/h (0 Bft) W-SW 247 0 min -2,5 C -0,9 C 0,0 km/h (0 Bft)
22.04.2016 06:05 -0,7 C 20,0 C 0,7 C -0,8 C -1,0 C 0,0 C 86 % 89 % 0 % 1021,1 hPa 0,0 l/m 0,0 km/h (0 Bft) W-SW 247 0 min -2,7 C -1,0 C 0,0 km/h (0 Bft)
22.04.2016 06:10 -0,8 C 20,0 C 0,7 C -0,9 C -1,0 C 0,0 C 86 % 89 % 0 % 1021,6 hPa 0,0 l/m 0,0 km/h (0 Bft) W-SW 247 0 min -2,8 C -1,0 C 0,0 km/h (0 Bft)
22.04.2016 06:15 -0,8 C 20,0 C 0,7 C -0,9 C -1,0 C 0,0 C 86 % 89 % 0 % 1021,6 hPa 0,0 l/m 0,0 km/h (0 Bft) W-SW 247 0 min -2,8 C -1,0 C 0,0 km/h (0 Bft)
22.04.2016 06:20 -0,7 C 19,9 C 0,7 C -0,8 C -1,0 C 0,0 C 87 % 89 % 0 % 1021,6 hPa 0,0 l/m 0,0 km/h (0 Bft) W 270 0 min -2,6 C -1,0 C 0,0 km/h (0 Bft)
22.04.2016 06:25 -0,7 C 19,9 C 0,7 C -0,8 C -0,9 C 0,0 C 87 % 89 % 0 % 1021,6 hPa 0,0 l/m 0,0 km/h (0 Bft) W 270 0 min -2,6 C -0,9 C 0,0 km/h (0 Bft)
22.04.2016 06:30 -0,7 C 20,0 C 0,8 C -0,7 C -0,7 C 0,0 C 87 % 89 % 0 % 1021,1 hPa 0,0 l/m 0,0 km/h (0 Bft) W 270 0 min -2,6 C -0,7 C 0,0 km/h (0 Bft)
22.04.2016 06:35 -0,6 C 19,9 C 0,9 C -0,3 C -0,3 C 0,3 C 87 % 90 % 8 % 1021,1 hPa 0,0 l/m 0,0 km/h (0 Bft) O-NO 67 0 min -2,5 C -0,3 C 0,0 km/h (0 Bft)
22.04.2016 06:41 -0,5 C 20,0 C 0,9 C -0,2 C -0,2 C 0,3 C 87 % 90 % 8 % 1021,1 hPa 0,0 l/m 0,0 km/h (0 Bft) N 0 0 min -2,4 C -0,2 C 0,0 km/h (0 Bft)
22.04.2016 06:50 -0,3 C 19,7 C 2,0 C 0,2 C 0,2 C 0,5 C 88 % 90 % 13 % 1020,8 hPa 0,0 l/m 0,0 km/h (0 Bft) NW 315 0 min -2,0 C 0,2 C 0,0 km/h (0 Bft)
22.04.2016 06:55 -0,4 C 19,7 C 2,3 C 0,5 C 0,5 C 0,9 C 87 % 90 % 24 % 1020,8 hPa 0,0 l/m 0,0 km/h (0 Bft) NW 315 0 min -2,3 C 0,5 C 0,0 km/h (0 Bft)
22.04.2016 07:00 -0,4 C 19,7 C 2,5 C 1,1 C 1,1 C 1,5 C 88 % 90 % 39 % 1020,8 hPa 0,0 l/m 0,0 km/h (0 Bft) N-NW 337 5 min -2,1 C 1,1 C 0,0 km/h (0 Bft)
22.04.2016 07:05 -0,1 C 19,7 C 2,9 C 3,9 C 3,9 C 4,0 C 88 % 89 % 100 % 1020,8 hPa 0,0 l/m 0,0 km/h (0 Bft) N-NW 337 5 min -1,8 C 3,9 C 0,0 km/h (0 Bft)
22.04.2016 07:10 -0,1 C 19,7 C 3,2 C 5,5 C 5,5 C 5,6 C 88 % 89 % 100 % 1021,0 hPa 0,0 l/m 0,0 km/h (0 Bft) S-SW 202 5 min -1,8 C 5,5 C 0,0 km/h (0 Bft)
22.04.2016 07:15 0,3 C 19,6 C 3,9 C 6,8 C 6,8 C 6,5 C 89 % 90 % 100 % 1021,0 hPa 0,0 l/m 0,0 km/h (0 Bft) SW 225 5 min -1,3 C 6,8 C 0,0 km/h (0 Bft)
22.04.2016 07:20 0,7 C 19,6 C 4,1 C 7,2 C 7,2 C 6,5 C 89 % 90 % 100 % 1021,0 hPa 0,0 l/m 0,0 km/h (0 Bft) W-SW 247 5 min -0,9 C 7,2 C 0,0 km/h (0 Bft)
22.04.2016 07:25 1,2 C 19,6 C 4,7 C 7,7 C 7,7 C 6,5 C 90 % 89 % 100 % 1021,0 hPa 0,0 l/m 0,0 km/h (0 Bft) O-NO 67 5 min -0,3 C 7,7 C 0,0 km/h (0 Bft)
22.04.2016 07:30 1,9 C 19,5 C 4,9 C 8,2 C 8,2 C 6,3 C 90 % 89 % 100 % 1021,4 hPa 0,0 l/m 0,0 km/h (0 Bft) W-SW 247 5 min 0,4 C 8,2 C 0,0 km/h (0 Bft)
22.04.2016 07:35 1,8 C 19,5 C 5,2 C 10,1 C 10,1 C 8,3 C 90 % 89 % 100 % 1021,4 hPa 0,0 l/m 0,0 km/h (0 Bft) S-SW 202 5 min 0,3 C 10,1 C 0,0 km/h (0 Bft)
22.04.2016 07:40 1,9 C 19,5 C 5,3 C 10,8 C 10,8 C 8,9 C 89 % 89 % 100 % 1021,4 hPa 0,0 l/m 0,0 km/h (0 Bft) SW 225 5 min 0,3 C 10,8 C 0,0 km/h (0 Bft)
22.04.2016 07:45 2,3 C 19,5 C 5,7 C 11,8 C 11,8 C 9,5 C 90 % 88 % 100 % 1021,4 hPa 0,0 l/m 0,0 km/h (0 Bft) W-SW 247 5 min 0,8 C 11,8 C 0,0 km/h (0 Bft)
22.04.2016 07:50 2,7 C 19,4 C 6,0 C 12,9 C 12,9 C 10,2 C 90 % 88 % 100 % 1021,6 hPa 0,0 l/m 0,0 km/h (0 Bft) W-SW 247 5 min 1,2 C 12,9 C 0,0 km/h (0 Bft)
22.04.2016 07:55 3,3 C 19,4 C 6,5 C 13,8 C 13,8 C 10,5 C 90 % 88 % 100 % 1021,6 hPa 0,0 l/m 0,0 km/h (0 Bft) S 180 5 min 1,8 C 13,8 C 0,0 km/h (0 Bft)
22.04.2016 08:00 3,2 C 19,4 C 6,6 C 13,9 C 13,9 C 10,7 C 90 % 87 % 100 % 1021,6 hPa 0,0 l/m 0,3 km/h (0 Bft) NW 315 5 min 1,7 C 13,9 C 0,0 km/h (0 Bft)
22.04.2016 08:05 3,5 C 19,3 C 6,8 C 14,5 C 14,5 C 11,0 C 90 % 87 % 100 % 1021,6 hPa 0,0 l/m 0,5 km/h (0 Bft) SW 225 5 min 2,0 C 14,5 C 2,9 km/h (1 Bft)
22.04.2016 08:10 3,6 C 19,3 C 7,1 C 14,8 C 14,8 C 11,2 C 90 % 86 % 100 % 1022,0 hPa 0,0 l/m 0,6 km/h (0 Bft) SO 135 5 min 2,1 C 14,8 C 1,8 km/h (1 Bft)
22.04.2016 08:15 4,0 C 19,3 C 7,5 C 15,3 C 15,3 C 11,3 C 90 % 86 % 100 % 1022,0 hPa 0,0 l/m 0,8 km/h (0 Bft) O-NO 67 5 min 2,5 C 15,3 C 3,2 km/h (1 Bft)
22.04.2016 08:20 4,1 C 19,3 C 7,8 C 15,3 C 15,3 C 11,2 C 90 % 86 % 100 % 1022,0 hPa 0,0 l/m 1,0 km/h (0 Bft) SW 225 5 min 2,6 C 15,3 C 0,0 km/h (0 Bft)
22.04.2016 08:25 4,7 C 19,3 C 7,8 C 15,7 C 15,7 C 11,0 C 89 % 84 % 100 % 1022,0 hPa 0,0 l/m 1,1 km/h (1 Bft) N-NO 22 5 min 3,0 C 15,7 C 3,4 km/h (1 Bft)
22.04.2016 08:30 4,9 C 19,2 C 7,8 C 15,8 C 15,8 C 10,9 C 89 % 83 % 100 % 1021,4 hPa 0,0 l/m 1,0 km/h (0 Bft) S 180 5 min 3,2 C 15,8 C 0,0 km/h (0 Bft)
22.04.2016 08:35 5,2 C 19,2 C 7,9 C 16,4 C 16,4 C 11,2 C 88 % 83 % 100 % 1021,4 hPa 0,0 l/m 1,4 km/h (1 Bft) SO 135 5 min 3,4 C 16,4 C 6,9 km/h (2 Bft)
22.04.2016 08:40 5,3 C 19,2 C 7,8 C 16,4 C 16,4 C 11,1 C 86 % 82 % 100 % 1021,4 hPa 0,0 l/m 1,3 km/h (1 Bft) SW 225 5 min 3,2 C 16,4 C 0,0 km/h (0 Bft)
22.04.2016 08:45 5,5 C 19,2 C 7,6 C 16,5 C 16,5 C 11,0 C 85 % 81 % 100 % 1021,4 hPa 0,0 l/m 1,6 km/h (1 Bft) N 360 5 min 3,2 C 16,5 C 0,0 km/h (0 Bft)
22.04.2016 08:50 5,9 C 19,2 C 7,7 C 16,9 C 16,9 C 11,0 C 85 % 82 % 100 % 1021,4 hPa 0,0 l/m 1,1 km/h (1 Bft) N-NO 22 5 min 3,6 C 16,9 C 1,6 km/h (1 Bft)
22.04.2016 08:55 6,3 C 19,2 C 7,7 C 17,0 C 17,0 C 10,7 C 83 % 82 % 100 % 1021,4 hPa 0,0 l/m 1,8 km/h (1 Bft) W-NW 292 5 min 3,6 C 17,0 C 4,2 km/h (1 Bft)
22.04.2016 09:00 6,4 C 19,1 C 7,9 C 16,9 C 16,9 C 10,5 C 82 % 81 % 100 % 1021,4 hPa 0,0 l/m 2,3 km/h (1 Bft) O-NO 67 5 min 3,6 C 16,9 C 0,0 km/h (0 Bft)
22.04.2016 09:05 6,8 C 19,2 C 8,0 C 16,8 C 16,8 C 10,0 C 81 % 80 % 100 % 1021,4 hPa 0,0 l/m 2,6 km/h (1 Bft) O-NO 67 5 min 3,8 C 16,8 C 8,2 km/h (2 Bft)
22.04.2016 09:10 7,1 C 19,2 C 8,0 C 16,5 C 16,5 C 9,4 C 81 % 80 % 100 % 1021,6 hPa 0,0 l/m 2,3 km/h (1 Bft) S 180 5 min 4,1 C 16,5 C 2,4 km/h (1 Bft)
22.04.2016 09:15 7,3 C 19,2 C 8,0 C 15,8 C 15,8 C 8,5 C 79 % 80 % 100 % 1021,6 hPa 0,0 l/m 2,3 km/h (1 Bft) NW 315 5 min 3,9 C 15,8 C 6,0 km/h (2 Bft)
22.04.2016 09:20 7,4 C 19,2 C 8,2 C 15,6 C 15,6 C 8,2 C 79 % 80 % 100 % 1021,6 hPa 0,0 l/m 2,1 km/h (1 Bft) S-SW 202 5 min 4,0 C 15,6 C 2,1 km/h (1 Bft)
22.04.2016 09:25 7,7 C 19,2 C 8,3 C 14,2 C 14,2 C 6,5 C 77 % 80 % 100 % 1021,6 hPa 0,0 l/m 3,5 km/h (1 Bft) S 180 5 min 3,9 C 14,2 C 8,4 km/h (2 Bft)
22.04.2016 09:30 7,6 C 19,2 C 8,2 C 13,0 C 13,0 C 5,4 C 76 % 79 % 100 % 1021,9 hPa 0,0 l/m 4,8 km/h (1 Bft) SW 225 5 min 3,6 C 13,0 C 8,0 km/h (2 Bft)
22.04.2016 09:35 7,5 C 19,2 C 8,1 C 11,8 C 11,8 C 4,3 C 76 % 79 % 100 % 1021,9 hPa 0,0 l/m 4,7 km/h (1 Bft) SW 225 5 min 3,5 C 11,8 C 3,9 km/h (1 Bft)
22.04.2016 09:41 7,6 C 19,1 C 8,3 C 11,7 C 11,7 C 4,1 C 76 % 79 % 100 % 1021,9 hPa 0,0 l/m 4,7 km/h (1 Bft) N 0 6 min 3,6 C 11,7 C 8,4 km/h (2 Bft)
22.04.2016 09:50 7,9 C 19,1 C 8,9 C 12,7 C 12,7 C 4,8 C 76 % 79 % 100 % 1021,4 hPa 0,0 l/m 2,3 km/h (1 Bft) W 270 9 min 3,9 C 12,7 C 11,1 km/h (2 Bft)
22.04.2016 09:55 8,3 C 19,2 C 9,4 C 13,1 C 13,1 C 4,8 C 75 % 77 % 100 % 1021,4 hPa 0,0 l/m 2,4 km/h (1 Bft) W-SW 247 5 min 4,1 C 13,1 C 3,2 km/h (1 Bft)
22.04.2016 10:00 8,4 C 19,2 C 9,5 C 13,3 C 13,3 C 4,9 C 74 % 76 % 100 % 1021,4 hPa 0,0 l/m 3,1 km/h (1 Bft) W 270 5 min 4,0 C 13,3 C 3,5 km/h (1 Bft)
22.04.2016 10:05 8,6 C 19,2 C 9,8 C 14,1 C 14,1 C 5,5 C 74 % 76 % 100 % 1021,4 hPa 0,0 l/m 3,7 km/h (1 Bft) SW 225 5 min 4,2 C 14,1 C 11,4 km/h (2 Bft)
22.04.2016 10:10 8,7 C 19,1 C 9,9 C 13,9 C 13,9 C 5,2 C 73 % 75 % 100 % 1021,4 hPa 0,0 l/m 4,8 km/h (1 Bft) W-SW 247 5 min 4,1 C 13,9 C 10,1 km/h (2 Bft)
22.04.2016 10:15 8,4 C 19,2 C 9,6 C 12,3 C 12,3 C 3,9 C 73 % 74 % 100 % 1021,4 hPa 0,0 l/m 4,7 km/h (1 Bft) W-SW 247 5 min 3,8 C 12,3 C 1,8 km/h (1 Bft)
22.04.2016 10:20 8,4 C 19,2 C 10,1 C 12,1 C 12,1 C 3,7 C 74 % 74 % 97 % 1021,4 hPa 0,0 l/m 3,4 km/h (1 Bft) N-NO 22 5 min 4,0 C 12,1 C 2,7 km/h (1 Bft)
22.04.2016 10:25 8,9 C 19,2 C 10,1 C 13,1 C 13,1 C 4,2 C 73 % 73 % 100 % 1021,4 hPa 0,0 l/m 2,9 km/h (1 Bft) W-SW 247 5 min 4,3 C 13,1 C 5,0 km/h (1 Bft)
22.04.2016 10:30 9,1 C 19,2 C 10,1 C 12,9 C 12,9 C 3,8 C 72 % 73 % 100 % 1021,5 hPa 0,0 l/m 4,3 km/h (1 Bft) W-SW 247 5 min 4,3 C 12,9 C 8,7 km/h (2 Bft)
22.04.2016 10:35 8,9 C 19,2 C 10,3 C 12,0 C 12,0 C 3,1 C 72 % 73 % 82 % 1021,5 hPa 0,0 l/m 5,5 km/h (1 Bft) SW 225 0 min 4,1 C 12,0 C 6,3 km/h (2 Bft)
22.04.2016 10:40 8,9 C 19,2 C 10,8 C 12,3 C 12,3 C 3,4 C 73 % 73 % 89 % 1021,5 hPa 0,0 l/m 6,0 km/h (2 Bft) W-SW 247 5 min 4,3 C 12,3 C 9,0 km/h (2 Bft)
22.04.2016 10:45 9,1 C 19,2 C 11,6 C 12,3 C 12,3 C 3,2 C 72 % 71 % 84 % 1021,5 hPa 0,0 l/m 6,0 km/h (2 Bft) S-SW 202 0 min 4,3 C 12,3 C 5,3 km/h (1 Bft)
22.04.2016 10:50 9,1 C 19,2 C 11,6 C 12,3 C 12,3 C 3,2 C 72 % 71 % 84 % 1021,5 hPa 0,0 l/m 4,5 km/h (1 Bft) W-SW 247 0 min 4,3 C 12,3 C 2,1 km/h (1 Bft)
22.04.2016 10:55 9,5 C 19,2 C 13,2 C 13,4 C 13,4 C 3,9 C 70 % 69 % 100 % 1021,5 hPa 0,0 l/m 4,2 km/h (1 Bft) SW 225 5 min 4,3 C 13,4 C 5,8 km/h (2 Bft)
22.04.2016 11:00 9,5 C 19,2 C 13,1 C 13,7 C 13,7 C 4,2 C 70 % 66 % 100 % 1021,5 hPa 0,0 l/m 5,0 km/h (1 Bft) SW 225 5 min 4,3 C 13,7 C 3,9 km/h (1 Bft)
22.04.2016 11:05 9,5 C 19,2 C 12,7 C 13,6 C 13,6 C 4,1 C 69 % 64 % 100 % 1021,5 hPa 0,0 l/m 5,6 km/h (1 Bft) W-SW 247 5 min 4,1 C 13,6 C 16,4 km/h (3 Bft)
22.04.2016 11:10 9,6 C 19,2 C 12,7 C 13,4 C 13,4 C 3,8 C 70 % 65 % 100 % 1021,5 hPa 0,0 l/m 4,8 km/h (1 Bft) NW 315 5 min 4,4 C 13,4 C 2,6 km/h (1 Bft)
22.04.2016 11:15 9,9 C 19,2 C 13,7 C 14,5 C 14,5 C 4,6 C 69 % 67 % 100 % 1021,5 hPa 0,0 l/m 3,5 km/h (1 Bft) SW 225 5 min 4,5 C 14,5 C 5,6 km/h (1 Bft)
22.04.2016 11:20 10,1 C 19,2 C 14,0 C 14,2 C 14,2 C 4,1 C 69 % 64 % 100 % 1021,5 hPa 0,0 l/m 4,0 km/h (1 Bft) W-SW 247 5 min 4,7 C 14,2 C 7,6 km/h (2 Bft)
22.04.2016 11:25 9,9 C 19,2 C 14,1 C 13,6 C 13,6 C 3,7 C 66 % 60 % 97 % 1021,5 hPa 0,0 l/m 6,9 km/h (2 Bft) W-SW 247 5 min 3,9 C 13,6 C 14,0 km/h (3 Bft)
22.04.2016 11:30 9,9 C 19,2 C 14,4 C 13,0 C 13,0 C 3,1 C 68 % 61 % 82 % 1021,8 hPa 0,0 l/m 7,1 km/h (2 Bft) S 180 0 min 4,3 C 13,0 C 4,8 km/h (1 Bft)
22.04.2016 11:35 10,0 C 19,3 C 14,2 C 13,2 C 13,2 C 3,2 C 67 % 61 % 84 % 1021,8 hPa 0,0 l/m 6,1 km/h (2 Bft) W 270 0 min 4,2 C 13,2 C 3,2 km/h (1 Bft)
22.04.2016 11:40 10,0 C 19,3 C 14,6 C 13,1 C 13,1 C 3,1 C 67 % 60 % 82 % 1021,8 hPa 0,0 l/m 5,3 km/h (1 Bft) SW 225 0 min 4,2 C 13,1 C 9,7 km/h (2 Bft)
22.04.2016 11:45 10,0 C 19,3 C 15,3 C 13,3 C 13,3 C 3,3 C 66 % 59 % 87 % 1021,8 hPa 0,0 l/m 4,5 km/h (1 Bft) W-SW 247 5 min 3,9 C 13,3 C 4,2 km/h (1 Bft)
22.04.2016 11:50 10,1 C 19,3 C 15,9 C 13,9 C 13,9 C 3,8 C 65 % 55 % 100 % 1021,8 hPa 0,0 l/m 4,0 km/h (1 Bft) N-NW 337 5 min 3,8 C 13,9 C 5,8 km/h (2 Bft)
22.04.2016 11:55 10,4 C 19,3 C 15,5 C 14,4 C 14,4 C 4,0 C 64 % 55 % 100 % 1021,8 hPa 0,0 l/m 3,2 km/h (1 Bft) N-NO 22 5 min 3,9 C 14,4 C 10,0 km/h (2 Bft)
22.04.2016 12:00 10,5 C 19,3 C 14,8 C 13,9 C 13,9 C 3,4 C 63 % 54 % 89 % 1021,8 hPa 0,0 l/m 3,5 km/h (1 Bft) NW 315 5 min 3,8 C 13,9 C 3,2 km/h (1 Bft)
22.04.2016 12:05 10,4 C 19,3 C 14,8 C 13,5 C 13,5 C 3,1 C 62 % 56 % 82 % 1021,8 hPa 0,0 l/m 4,2 km/h (1 Bft) SW 225 0 min 3,4 C 13,5 C 6,6 km/h (2 Bft)
22.04.2016 12:10 10,4 C 19,3 C 15,5 C 13,5 C 13,5 C 3,1 C 62 % 56 % 82 % 1021,3 hPa 0,0 l/m 4,3 km/h (1 Bft) W-SW 247 0 min 3,4 C 13,5 C 5,0 km/h (1 Bft)
22.04.2016 12:15 10,8 C 19,3 C 15,7 C 14,8 C 14,8 C 4,0 C 63 % 55 % 100 % 1021,3 hPa 0,0 l/m 4,0 km/h (1 Bft) S 180 5 min 4,0 C 14,8 C 0,0 km/h (0 Bft)
22.04.2016 12:20 11,1 C 19,3 C 15,9 C 15,9 C 15,9 C 4,8 C 62 % 55 % 100 % 1021,3 hPa 0,0 l/m 4,2 km/h (1 Bft) W-SW 247 5 min 4,1 C 15,9 C 7,1 km/h (2 Bft)
22.04.2016 12:25 11,3 C 19,2 C 16,5 C 16,8 C 16,8 C 5,5 C 59 % 50 % 100 % 1021,3 hPa 0,0 l/m 3,9 km/h (1 Bft) N-NO 22 5 min 3,6 C 16,8 C 3,5 km/h (1 Bft)
22.04.2016 12:30 11,5 C 19,2 C 16,9 C 17,4 C 17,4 C 5,9 C 59 % 53 % 100 % 1020,8 hPa 0,0 l/m 3,2 km/h (1 Bft) SW 225 5 min 3,8 C 17,4 C 0,0 km/h (0 Bft)
22.04.2016 12:35 11,7 C 19,3 C 16,4 C 17,8 C 17,8 C 6,1 C 57 % 48 % 100 % 1020,8 hPa 0,0 l/m 3,2 km/h (1 Bft) W-SW 247 5 min 3,5 C 17,8 C 7,1 km/h (2 Bft)
22.04.2016 12:43 11,8 C 19,3 C 15,5 C 18,1 C 18,1 C 6,3 C 52 % 48 % 100 % 1020,8 hPa 0,0 l/m 3,5 km/h (1 Bft) N 0 8 min 2,3 C 18,1 C 4,8 km/h (1 Bft)
22.04.2016 12:50 12,1 C 19,3 C 15,6 C 18,2 C 18,2 C 6,1 C 52 % 47 % 100 % 1020,6 hPa 0,0 l/m 2,9 km/h (1 Bft) N-NW 337 7 min 2,5 C 18,2 C 2,6 km/h (1 Bft)
22.04.2016 12:55 12,4 C 19,3 C 16,3 C 18,5 C 18,5 C 6,1 C 50 % 47 % 100 % 1020,6 hPa 0,0 l/m 2,7 km/h (1 Bft) N-NW 337 5 min 2,3 C 18,5 C 6,3 km/h (2 Bft)
22.04.2016 13:00 12,3 C 19,3 C 16,8 C 18,5 C 18,5 C 6,2 C 50 % 47 % 100 % 1020,6 hPa 0,0 l/m 2,9 km/h (1 Bft) W-SW 247 5 min 2,2 C 18,5 C 3,1 km/h (1 Bft)
22.04.2016 13:05 12,4 C 19,3 C 17,5 C 18,5 C 18,5 C 6,1 C 51 % 45 % 100 % 1020,6 hPa 0,0 l/m 3,2 km/h (1 Bft) NW 315 5 min 2,6 C 18,5 C 4,2 km/h (1 Bft)
22.04.2016 13:10 12,4 C 19,3 C 17,6 C 18,3 C 18,3 C 5,9 C 51 % 47 % 100 % 1020,5 hPa 0,0 l/m 3,7 km/h (1 Bft) SW 225 5 min 2,6 C 18,3 C 4,8 km/h (1 Bft)
22.04.2016 13:15 12,4 C 19,4 C 17,5 C 17,8 C 17,8 C 5,4 C 49 % 43 % 100 % 1020,5 hPa 0,0 l/m 4,7 km/h (1 Bft) N-NO 22 5 min 2,0 C 17,8 C 3,4 km/h (1 Bft)
22.04.2016 13:20 12,6 C 19,4 C 17,5 C 18,2 C 18,2 C 5,6 C 48 % 43 % 100 % 1020,5 hPa 0,0 l/m 3,9 km/h (1 Bft) SW 225 5 min 1,9 C 18,2 C 5,6 km/h (1 Bft)
22.04.2016 13:25 12,8 C 19,4 C 17,6 C 18,5 C 18,5 C 5,7 C 46 % 42 % 100 % 1020,5 hPa 0,0 l/m 3,4 km/h (1 Bft) SW 225 5 min 1,5 C 18,5 C 10,8 km/h (2 Bft)
22.04.2016 13:30 12,7 C 19,4 C 17,1 C 17,9 C 17,9 C 5,2 C 46 % 42 % 100 % 1020,2 hPa 0,0 l/m 5,6 km/h (1 Bft) W-SW 247 5 min 1,4 C 17,9 C 7,2 km/h (2 Bft)
22.04.2016 13:35 12,6 C 19,4 C 17,0 C 17,8 C 17,8 C 5,2 C 45 % 43 % 100 % 1020,2 hPa 0,0 l/m 6,1 km/h (2 Bft) S-SW 202 5 min 1,0 C 17,8 C 3,7 km/h (1 Bft)
22.04.2016 13:40 12,7 C 19,4 C 17,1 C 17,7 C 17,7 C 5,0 C 44 % 41 % 100 % 1020,2 hPa 0,0 l/m 4,8 km/h (1 Bft) NW 315 5 min 0,8 C 17,7 C 2,7 km/h (1 Bft)
22.04.2016 13:45 12,8 C 19,4 C 17,4 C 18,4 C 18,4 C 5,6 C 45 % 42 % 100 % 1020,2 hPa 0,0 l/m 3,5 km/h (1 Bft) SW 225 5 min 1,2 C 18,4 C 9,3 km/h (2 Bft)
22.04.2016 13:50 13,1 C 19,4 C 17,8 C 18,5 C 18,5 C 5,4 C 45 % 40 % 100 % 1020,0 hPa 0,0 l/m 3,2 km/h (1 Bft) W 270 5 min 1,4 C 18,5 C 4,2 km/h (1 Bft)
22.04.2016 13:55 12,9 C 19,5 C 17,9 C 18,5 C 18,5 C 5,6 C 44 % 39 % 100 % 1020,0 hPa 0,0 l/m 3,7 km/h (1 Bft) N-NW 337 5 min 1,0 C 18,5 C 0,0 km/h (0 Bft)
22.04.2016 14:00 13,3 C 19,5 C 18,3 C 19,2 C 19,2 C 5,9 C 46 % 41 % 100 % 1020,0 hPa 0,0 l/m 2,6 km/h (1 Bft) SO 135 5 min 1,9 C 19,2 C 2,6 km/h (1 Bft)
22.04.2016 14:05 13,6 C 19,5 C 18,3 C 19,7 C 19,7 C 6,1 C 46 % 41 % 100 % 1020,0 hPa 0,0 l/m 2,3 km/h (1 Bft) W-SW 247 5 min 2,2 C 19,7 C 7,4 km/h (2 Bft)
22.04.2016 14:10 13,6 C 19,5 C 18,0 C 19,4 C 19,4 C 5,8 C 45 % 41 % 100 % 1019,8 hPa 0,0 l/m 3,5 km/h (1 Bft) W-SW 247 5 min 1,9 C 19,4 C 8,5 km/h (2 Bft)
22.04.2016 14:15 13,4 C 19,5 C 17,2 C 18,7 C 18,7 C 5,3 C 43 % 41 % 100 % 1019,8 hPa 0,0 l/m 5,1 km/h (1 Bft) SW 225 5 min 1,1 C 18,7 C 4,8 km/h (1 Bft)
22.04.2016 14:20 13,4 C 19,6 C 16,8 C 18,6 C 18,6 C 5,2 C 45 % 42 % 100 % 1019,8 hPa 0,0 l/m 4,8 km/h (1 Bft) W-SW 247 5 min 1,7 C 18,6 C 7,9 km/h (2 Bft)
22.04.2016 14:25 13,7 C 19,6 C 16,9 C 18,3 C 18,3 C 4,6 C 44 % 42 % 100 % 1019,8 hPa 0,0 l/m 4,8 km/h (1 Bft) W 270 5 min 1,7 C 18,3 C 5,5 km/h (1 Bft)
22.04.2016 14:30 13,7 C 19,6 C 17,1 C 18,6 C 18,6 C 4,9 C 43 % 43 % 100 % 1020,1 hPa 0,0 l/m 4,5 km/h (1 Bft) O-SO 112 5 min 1,4 C 18,6 C 3,2 km/h (1 Bft)
22.04.2016 14:35 13,9 C 19,6 C 17,6 C 19,5 C 19,5 C 5,6 C 45 % 42 % 100 % 1020,1 hPa 0,0 l/m 2,7 km/h (1 Bft) W-SW 247 5 min 2,2 C 19,5 C 9,8 km/h (2 Bft)
22.04.2016 14:40 14,0 C 19,6 C 17,7 C 19,2 C 19,2 C 5,2 C 43 % 42 % 100 % 1020,1 hPa 0,0 l/m 3,9 km/h (1 Bft) W-SW 247 5 min 1,6 C 19,2 C 10,3 km/h (2 Bft)
22.04.2016 14:45 13,9 C 19,6 C 17,2 C 18,7 C 18,7 C 4,8 C 43 % 41 % 100 % 1020,1 hPa 0,0 l/m 5,6 km/h (1 Bft) S-SO 157 5 min 1,5 C 18,7 C 3,2 km/h (1 Bft)
22.04.2016 14:50 13,7 C 19,6 C 16,7 C 18,7 C 18,7 C 5,0 C 43 % 41 % 100 % 1019,2 hPa 0,0 l/m 4,5 km/h (1 Bft) SW 225 5 min 1,4 C 18,7 C 3,9 km/h (1 Bft)
22.04.2016 14:55 14,0 C 19,6 C 16,0 C 19,0 C 19,0 C 5,0 C 40 % 40 % 100 % 1019,2 hPa 0,0 l/m 3,5 km/h (1 Bft) N-NO 22 5 min 0,6 C 19,0 C 1,9 km/h (1 Bft)
22.04.2016 15:00 14,4 C 19,6 C 16,0 C 19,4 C 19,4 C 5,0 C 40 % 41 % 100 % 1019,2 hPa 0,0 l/m 2,9 km/h (1 Bft) N-NW 337 5 min 1,0 C 19,4 C 2,4 km/h (1 Bft)
22.04.2016 15:05 14,1 C 19,7 C 15,3 C 19,6 C 19,6 C 5,5 C 37 % 39 % 100 % 1019,2 hPa 0,0 l/m 3,2 km/h (1 Bft) S-SW 202 5 min -0,4 C 19,6 C 3,9 km/h (1 Bft)
22.04.2016 15:10 14,1 C 19,7 C 15,1 C 19,2 C 19,2 C 5,1 C 38 % 40 % 100 % 1018,9 hPa 0,0 l/m 4,3 km/h (1 Bft) NW 315 5 min 0,0 C 19,2 C 1,6 km/h (1 Bft)
22.04.2016 15:15 14,2 C 19,7 C 15,0 C 19,0 C 19,0 C 4,8 C 39 % 42 % 100 % 1018,9 hPa 0,0 l/m 5,6 km/h (1 Bft) SW 225 5 min 0,5 C 19,0 C 8,5 km/h (2 Bft)
22.04.2016 15:20 14,2 C 19,7 C 15,1 C 18,8 C 18,8 C 4,6 C 39 % 42 % 100 % 1018,9 hPa 0,0 l/m 5,1 km/h (1 Bft) NW 315 5 min 0,5 C 18,8 C 3,5 km/h (1 Bft)
22.04.2016 15:25 14,5 C 19,8 C 14,7 C 18,9 C 18,9 C 4,4 C 39 % 43 % 100 % 1018,9 hPa 0,0 l/m 4,8 km/h (1 Bft) SW 225 5 min 0,7 C 18,9 C 8,2 km/h (2 Bft)
22.04.2016 15:30 14,5 C 19,8 C 14,8 C 18,8 C 18,8 C 4,3 C 36 % 42 % 100 % 1018,6 hPa 0,0 l/m 5,1 km/h (1 Bft) SW 225 5 min -0,4 C 18,8 C 10,5 km/h (2 Bft)
22.04.2016 15:35 14,3 C 19,8 C 14,7 C 18,2 C 18,2 C 3,9 C 37 % 42 % 100 % 1018,6 hPa 0,0 l/m 7,4 km/h (2 Bft) SW 225 5 min -0,2 C 18,2 C 10,9 km/h (2 Bft)
22.04.2016 15:41 14,3 C 19,8 C 14,4 C 18,1 C 18,1 C 3,8 C 37 % 41 % 100 % 1018,6 hPa 0,0 l/m 6,8 km/h (2 Bft) N 0 6 min -0,2 C 18,1 C 4,8 km/h (1 Bft)
22.04.2016 15:50 14,5 C 19,8 C 14,4 C 18,8 C 18,8 C 4,3 C 39 % 43 % 100 % 1018,8 hPa 0,0 l/m 4,3 km/h (1 Bft) N-NW 337 9 min 0,7 C 18,8 C 5,5 km/h (1 Bft)
22.04.2016 15:55 14,5 C 19,9 C 14,3 C 19,5 C 19,5 C 5,0 C 38 % 43 % 100 % 1018,8 hPa 0,0 l/m 3,4 km/h (1 Bft) S 180 5 min 0,4 C 19,5 C 4,3 km/h (1 Bft)
22.04.2016 16:00 14,8 C 19,9 C 14,4 C 19,7 C 19,7 C 4,9 C 38 % 44 % 100 % 1018,8 hPa 0,0 l/m 3,4 km/h (1 Bft) S-SW 202 5 min 0,6 C 19,7 C 3,9 km/h (1 Bft)
22.04.2016 16:05 14,7 C 19,9 C 14,6 C 19,6 C 19,6 C 4,9 C 39 % 44 % 100 % 1018,8 hPa 0,0 l/m 4,3 km/h (1 Bft) NW 315 5 min 0,9 C 19,6 C 0,0 km/h (0 Bft)
22.04.2016 16:10 14,9 C 19,9 C 14,7 C 19,8 C 19,8 C 4,9 C 39 % 44 % 100 % 1018,8 hPa 0,0 l/m 4,3 km/h (1 Bft) S 180 5 min 1,1 C 19,8 C 6,3 km/h (2 Bft)
22.04.2016 16:15 14,9 C 20,0 C 14,7 C 19,4 C 19,4 C 4,5 C 40 % 46 % 100 % 1018,8 hPa 0,0 l/m 4,3 km/h (1 Bft) SW 225 5 min 1,4 C 19,4 C 4,5 km/h (1 Bft)
22.04.2016 16:20 14,8 C 20,0 C 14,7 C 19,4 C 19,4 C 4,6 C 39 % 45 % 100 % 1018,8 hPa 0,0 l/m 5,0 km/h (1 Bft) W-SW 247 5 min 1,0 C 19,4 C 9,2 km/h (2 Bft)
22.04.2016 16:25 14,4 C 20,0 C 14,7 C 18,9 C 18,9 C 4,5 C 39 % 44 % 100 % 1018,8 hPa 0,0 l/m 5,3 km/h (1 Bft) O 90 5 min 0,6 C 18,9 C 0,0 km/h (0 Bft)
22.04.2016 16:30 14,6 C 20,0 C 14,8 C 19,1 C 19,1 C 4,5 C 38 % 45 % 100 % 1017,9 hPa 0,0 l/m 5,5 km/h (1 Bft) W-SW 247 5 min 0,4 C 19,1 C 8,0 km/h (2 Bft)
22.04.2016 16:35 14,6 C 20,0 C 15,0 C 19,0 C 19,0 C 4,4 C 40 % 45 % 100 % 1017,9 hPa 0,0 l/m 4,7 km/h (1 Bft) W-SW 247 5 min 1,2 C 19,0 C 4,5 km/h (1 Bft)
22.04.2016 16:40 14,8 C 20,0 C 15,2 C 19,4 C 19,4 C 4,6 C 41 % 45 % 100 % 1017,9 hPa 0,0 l/m 4,3 km/h (1 Bft) W 270 5 min 1,7 C 19,4 C 4,2 km/h (1 Bft)
22.04.2016 16:45 14,8 C 20,1 C 15,7 C 19,9 C 19,9 C 5,1 C 39 % 44 % 100 % 1017,9 hPa 0,0 l/m 3,2 km/h (1 Bft) S-SW 202 5 min 1,0 C 19,9 C 4,2 km/h (1 Bft)
22.04.2016 16:50 14,7 C 20,1 C 16,2 C 19,7 C 19,7 C 5,0 C 38 % 43 % 100 % 1017,7 hPa 0,0 l/m 4,3 km/h (1 Bft) W-SW 247 5 min 0,5 C 19,7 C 6,6 km/h (2 Bft)
22.04.2016 16:55 14,5 C 20,1 C 17,1 C 19,0 C 19,0 C 4,5 C 37 % 40 % 100 % 1017,7 hPa 0,0 l/m 6,3 km/h (2 Bft) SW 225 5 min -0,0 C 19,0 C 8,4 km/h (2 Bft)
22.04.2016 17:00 14,3 C 20,1 C 16,9 C 18,8 C 18,8 C 4,5 C 37 % 39 % 100 % 1017,7 hPa 0,0 l/m 6,3 km/h (2 Bft) W-SW 247 5 min -0,2 C 18,8 C 7,6 km/h (2 Bft)
22.04.2016 17:05 13,9 C 20,2 C 16,4 C 17,7 C 17,7 C 3,8 C 36 % 38 % 100 % 1017,7 hPa 0,0 l/m 5,6 km/h (1 Bft) W-SW 247 5 min -0,9 C 17,7 C 5,8 km/h (2 Bft)
22.04.2016 17:10 13,9 C 20,2 C 16,0 C 17,0 C 17,0 C 3,1 C 37 % 37 % 82 % 1017,4 hPa 0,0 l/m 4,3 km/h (1 Bft) S-SO 157 0 min -0,5 C 17,0 C 1,6 km/h (1 Bft)
22.04.2016 17:15 13,9 C 20,2 C 16,1 C 17,4 C 17,4 C 3,5 C 38 % 39 % 92 % 1017,4 hPa 0,0 l/m 3,2 km/h (1 Bft) W-SW 247 5 min -0,2 C 17,4 C 3,5 km/h (1 Bft)
22.04.2016 17:20 14,1 C 20,3 C 16,5 C 18,1 C 18,1 C 4,0 C 39 % 40 % 100 % 1017,4 hPa 0,0 l/m 3,1 km/h (1 Bft) N-NO 22 5 min 0,4 C 18,1 C 8,9 km/h (2 Bft)
22.04.2016 17:25 14,0 C 20,3 C 16,2 C 19,2 C 19,2 C 5,2 C 38 % 38 % 100 % 1017,4 hPa 0,0 l/m 2,3 km/h (1 Bft) N 360 5 min -0,1 C 19,2 C 2,7 km/h (1 Bft)
22.04.2016 17:30 13,9 C 20,3 C 16,1 C 19,7 C 19,7 C 5,8 C 39 % 39 % 100 % 1017,5 hPa 0,0 l/m 1,9 km/h (1 Bft) W-SW 247 5 min 0,2 C 19,7 C 5,3 km/h (1 Bft)
22.04.2016 17:35 14,0 C 20,3 C 16,2 C 19,6 C 19,6 C 5,6 C 40 % 41 % 100 % 1017,5 hPa 0,0 l/m 3,4 km/h (1 Bft) W-SW 247 5 min 0,6 C 19,6 C 8,2 km/h (2 Bft)
22.04.2016 17:40 14,0 C 20,3 C 16,4 C 19,2 C 19,2 C 5,2 C 40 % 41 % 100 % 1017,5 hPa 0,0 l/m 5,0 km/h (1 Bft) W-SW 247 5 min 0,6 C 19,2 C 4,5 km/h (1 Bft)
22.04.2016 17:45 14,1 C 20,3 C 16,4 C 19,1 C 19,1 C 5,0 C 41 % 41 % 100 % 1017,5 hPa 0,0 l/m 4,0 km/h (1 Bft) SO 135 5 min 1,1 C 19,1 C 3,2 km/h (1 Bft)
22.04.2016 17:50 14,2 C 20,4 C 15,9 C 19,4 C 19,4 C 5,2 C 42 % 41 % 100 % 1017,1 hPa 0,0 l/m 2,7 km/h (1 Bft) NO 45 5 min 1,5 C 19,4 C 2,7 km/h (1 Bft)
22.04.2016 17:55 14,3 C 20,3 C 16,1 C 19,6 C 19,6 C 5,3 C 41 % 42 % 100 % 1017,1 hPa 0,0 l/m 2,7 km/h (1 Bft) W 270 5 min 1,2 C 19,6 C 8,4 km/h (2 Bft)
22.04.2016 18:00 14,3 C 20,3 C 16,4 C 19,5 C 19,5 C 5,2 C 42 % 41 % 100 % 1017,1 hPa 0,0 l/m 2,9 km/h (1 Bft) N-NW 337 5 min 1,6 C 19,5 C 4,5 km/h (1 Bft)
22.04.2016 18:05 14,3 C 20,3 C 16,1 C 19,3 C 19,3 C 5,0 C 40 % 42 % 100 % 1017,1 hPa 0,0 l/m 3,4 km/h (1 Bft) W 270 5 min 0,9 C 19,3 C 8,9 km/h (2 Bft)
22.04.2016 18:10 14,1 C 20,4 C 15,5 C 18,7 C 18,7 C 4,6 C 40 % 42 % 100 % 1017,3 hPa 0,0 l/m 3,9 km/h (1 Bft) W-SW 247 5 min 0,7 C 18,7 C 4,3 km/h (1 Bft)
22.04.2016 18:15 14,0 C 20,4 C 15,1 C 18,5 C 18,5 C 4,5 C 42 % 43 % 100 % 1017,3 hPa 0,0 l/m 3,5 km/h (1 Bft) O-NO 67 5 min 1,3 C 18,5 C 3,5 km/h (1 Bft)
22.04.2016 18:20 13,9 C 20,4 C 14,5 C 18,3 C 18,3 C 4,4 C 42 % 43 % 100 % 1017,3 hPa 0,0 l/m 2,7 km/h (1 Bft) N-NO 22 5 min 1,2 C 18,3 C 6,1 km/h (2 Bft)
22.04.2016 18:25 13,6 C 20,4 C 14,0 C 17,7 C 17,7 C 4,1 C 42 % 43 % 100 % 1017,3 hPa 0,0 l/m 2,7 km/h (1 Bft) W-NW 292 5 min 0,9 C 17,7 C 4,0 km/h (1 Bft)
22.04.2016 18:30 13,5 C 20,4 C 13,9 C 17,8 C 17,8 C 4,3 C 42 % 44 % 100 % 1017,1 hPa 0,0 l/m 2,6 km/h (1 Bft) W 270 5 min 0,8 C 17,8 C 0,0 km/h (0 Bft)
22.04.2016 18:35 13,6 C 20,4 C 13,7 C 18,0 C 18,0 C 4,4 C 43 % 45 % 100 % 1017,1 hPa 0,0 l/m 1,6 km/h (1 Bft) NW 315 5 min 1,3 C 18,0 C 2,4 km/h (1 Bft)
22.04.2016 18:43 13,7 C 20,4 C 13,5 C 17,6 C 17,6 C 3,9 C 43 % 46 % 100 % 1017,1 hPa 0,0 l/m 1,4 km/h (1 Bft) N 0 8 min 1,4 C 17,6 C 3,1 km/h (1 Bft)
22.04.2016 18:50 13,7 C 20,4 C 13,3 C 17,3 C 17,3 C 3,6 C 42 % 46 % 95 % 1017,1 hPa 0,0 l/m 1,8 km/h (1 Bft) NW 315 7 min 1,0 C 17,3 C 5,8 km/h (2 Bft)
22.04.2016 18:55 13,4 C 20,4 C 12,9 C 16,1 C 16,1 C 2,7 C 42 % 46 % 71 % 1017,1 hPa 0,0 l/m 2,3 km/h (1 Bft) W-SW 247 5 min 0,8 C 16,1 C 3,5 km/h (1 Bft)
22.04.2016 19:00 13,3 C 20,4 C 12,8 C 15,5 C 15,5 C 2,2 C 42 % 46 % 58 % 1017,1 hPa 0,0 l/m 1,9 km/h (1 Bft) NW 315 5 min 0,7 C 15,5 C 1,9 km/h (1 Bft)
22.04.2016 19:05 13,1 C 20,4 C 12,5 C 14,7 C 14,7 C 1,6 C 42 % 46 % 42 % 1017,1 hPa 0,0 l/m 1,6 km/h (1 Bft) N-NW 337 0 min 0,5 C 14,7 C 3,4 km/h (1 Bft)
22.04.2016 19:10 12,9 C 20,4 C 12,4 C 14,7 C 14,7 C 1,8 C 43 % 47 % 47 % 1017,5 hPa 0,0 l/m 1,8 km/h (1 Bft) O 90 5 min 0,6 C 14,7 C 0,0 km/h (0 Bft)
22.04.2016 19:15 12,9 C 20,4 C 12,3 C 14,2 C 14,2 C 1,3 C 44 % 48 % 34 % 1017,5 hPa 0,0 l/m 1,4 km/h (1 Bft) NW 315 0 min 1,0 C 14,2 C 2,6 km/h (1 Bft)
22.04.2016 19:20 12,7 C 20,4 C 12,1 C 13,5 C 13,5 C 0,8 C 44 % 47 % 21 % 1017,5 hPa 0,0 l/m 1,1 km/h (1 Bft) N-NO 22 0 min 0,8 C 13,5 C 2,1 km/h (1 Bft)
22.04.2016 19:25 12,5 C 20,4 C 11,8 C 12,5 C 12,5 C 0,0 C 44 % 47 % 0 % 1017,5 hPa 0,0 l/m 1,0 km/h (0 Bft) N-NW 337 0 min 0,6 C 12,5 C 0,0 km/h (0 Bft)
22.04.2016 19:30 12,2 C 20,4 C 11,6 C 12,2 C 12,1 C 0,0 C 45 % 48 % 0 % 1017,1 hPa 0,0 l/m 0,8 km/h (0 Bft) NO 45 0 min 0,6 C 12,1 C 0,0 km/h (0 Bft)
22.04.2016 19:35 12,0 C 20,4 C 11,3 C 11,8 C 11,5 C 0,0 C 45 % 50 % 0 % 1017,1 hPa 0,0 l/m 0,3 km/h (0 Bft) N 360 0 min 0,4 C 11,5 C 0,0 km/h (0 Bft)
22.04.2016 19:40 11,9 C 20,4 C 11,3 C 11,7 C 11,2 C 0,0 C 46 % 50 % 0 % 1017,1 hPa 0,0 l/m 0,3 km/h (0 Bft) O-SO 112 0 min 0,7 C 11,2 C 0,0 km/h (0 Bft)
22.04.2016 19:45 11,6 C 20,4 C 11,0 C 11,3 C 10,7 C 0,0 C 46 % 51 % 0 % 1017,1 hPa 0,0 l/m 0,2 km/h (0 Bft) N-NO 22 0 min 0,4 C 10,7 C 1,9 km/h (1 Bft)
22.04.2016 19:50 11,4 C 20,4 C 10,8 C 11,1 C 10,5 C 0,0 C 47 % 51 % 0 % 1016,7 hPa 0,0 l/m 0,2 km/h (0 Bft) N 360 0 min 0,5 C 10,5 C 0,0 km/h (0 Bft)
22.04.2016 19:55 11,3 C 20,4 C 10,5 C 11,0 C 10,3 C 0,0 C 48 % 53 % 0 % 1016,7 hPa 0,0 l/m 0,2 km/h (0 Bft) N-NO 22 0 min 0,7 C 10,3 C 0,0 km/h (0 Bft)
22.04.2016 20:00 11,1 C 20,4 C 10,3 C 10,7 C 10,0 C 0,0 C 48 % 53 % 0 % 1016,7 hPa 0,0 l/m 0,3 km/h (0 Bft) NO 45 0 min 0,5 C 10,0 C 0,0 km/h (0 Bft)
22.04.2016 20:05 10,8 C 20,4 C 10,0 C 10,5 C 9,8 C 0,0 C 49 % 55 % 0 % 1016,7 hPa 0,0 l/m 0,3 km/h (0 Bft) S-SO 157 0 min 0,5 C 9,8 C 1,8 km/h (1 Bft)
22.04.2016 20:10 10,7 C 20,4 C 9,7 C 10,3 C 9,6 C 0,0 C 49 % 55 % 0 % 1016,8 hPa 0,0 l/m 0,0 km/h (0 Bft) N 360 0 min 0,4 C 9,6 C 0,0 km/h (0 Bft)
22.04.2016 20:15 10,5 C 20,5 C 9,5 C 10,1 C 9,2 C 0,0 C 50 % 57 % 0 % 1016,8 hPa 0,0 l/m 0,0 km/h (0 Bft) NO 45 0 min 0,5 C 9,2 C 0,0 km/h (0 Bft)
22.04.2016 20:20 10,3 C 20,5 C 9,2 C 9,9 C 9,1 C 0,0 C 51 % 58 % 0 % 1016,8 hPa 0,0 l/m 0,0 km/h (0 Bft) NO 45 0 min 0,6 C 9,1 C 0,0 km/h (0 Bft)
22.04.2016 20:25 10,1 C 20,5 C 8,9 C 9,7 C 8,8 C 0,0 C 52 % 59 % 0 % 1016,8 hPa 0,0 l/m 0,0 km/h (0 Bft) NO 45 0 min 0,7 C 8,8 C 0,0 km/h (0 Bft)
22.04.2016 20:30 10,0 C 20,5 C 8,9 C 9,6 C 8,7 C 0,0 C 52 % 59 % 0 % 1016,8 hPa 0,0 l/m 0,0 km/h (0 Bft) NO 45 0 min 0,6 C 8,7 C 0,0 km/h (0 Bft)
22.04.2016 20:35 9,7 C 20,5 C 8,8 C 9,2 C 8,3 C 0,0 C 52 % 59 % 0 % 1016,8 hPa 0,0 l/m 0,0 km/h (0 Bft) NO 45 0 min 0,3 C 8,3 C 0,0 km/h (0 Bft)
22.04.2016 20:40 9,6 C 20,5 C 8,7 C 9,1 C 8,1 C 0,0 C 52 % 61 % 0 % 1016,8 hPa 0,0 l/m 0,0 km/h (0 Bft) NO 45 0 min 0,2 C 8,1 C 0,0 km/h (0 Bft)
22.04.2016 20:45 9,5 C 20,5 C 8,7 C 9,0 C 8,0 C 0,0 C 54 % 62 % 0 % 1016,8 hPa 0,0 l/m 0,0 km/h (0 Bft) S 180 0 min 0,7 C 8,0 C 0,0 km/h (0 Bft)
22.04.2016 20:50 9,3 C 20,5 C 8,5 C 8,8 C 7,9 C 0,0 C 55 % 63 % 0 % 1016,8 hPa 0,0 l/m 0,0 km/h (0 Bft) W 270 0 min 0,7 C 7,9 C 0,0 km/h (0 Bft)
22.04.2016 20:55 9,2 C 20,5 C 8,3 C 8,7 C 7,8 C 0,0 C 57 % 63 % 0 % 1016,8 hPa 0,0 l/m 0,0 km/h (0 Bft) W 270 0 min 1,1 C 7,8 C 0,0 km/h (0 Bft)
22.04.2016 21:00 9,1 C 20,5 C 8,2 C 8,6 C 7,7 C 0,0 C 58 % 64 % 0 % 1016,8 hPa 0,0 l/m 0,0 km/h (0 Bft) W 270 0 min 1,3 C 7,7 C 0,0 km/h (0 Bft)
22.04.2016 21:05 8,9 C 20,5 C 8,1 C 8,5 C 7,7 C 0,0 C 59 % 65 % 0 % 1016,8 hPa 0,0 l/m 0,0 km/h (0 Bft) O-SO 112 0 min 1,3 C 7,7 C 0,0 km/h (0 Bft)
22.04.2016 21:10 8,8 C 20,5 C 8,0 C 8,4 C 7,5 C 0,0 C 59 % 65 % 0 % 1016,9 hPa 0,0 l/m 0,0 km/h (0 Bft) O-SO 112 0 min 1,2 C 7,5 C 0,0 km/h (0 Bft)
22.04.2016 21:15 8,7 C 20,5 C 7,8 C 8,2 C 7,2 C 0,0 C 59 % 66 % 0 % 1016,9 hPa 0,0 l/m 0,0 km/h (0 Bft) O-SO 112 0 min 1,1 C 7,2 C 0,0 km/h (0 Bft)
22.04.2016 21:20 8,5 C 20,5 C 7,7 C 8,0 C 7,0 C 0,0 C 60 % 66 % 0 % 1016,9 hPa 0,0 l/m 0,0 km/h (0 Bft) O-SO 112 0 min 1,2 C 7,0 C 0,0 km/h (0 Bft)
22.04.2016 21:25 8,3 C 20,5 C 7,7 C 7,8 C 6,9 C 0,0 C 61 % 68 % 0 % 1016,9 hPa 0,0 l/m 0,0 km/h (0 Bft) O-SO 112 0 min 1,2 C 6,9 C 0,0 km/h (0 Bft)
22.04.2016 21:30 8,3 C 20,5 C 7,5 C 7,7 C 6,6 C 0,0 C 63 % 69 % 0 % 1016,6 hPa 0,0 l/m 0,0 km/h (0 Bft) W-SW 247 0 min 1,7 C 6,6 C 0,0 km/h (0 Bft)
22.04.2016 21:35 8,1 C 20,5 C 7,4 C 7,6 C 6,5 C 0,0 C 64 % 69 % 0 % 1016,6 hPa 0,0 l/m 0,0 km/h (0 Bft) W-SW 247 0 min 1,7 C 6,5 C 0,0 km/h (0 Bft)
22.04.2016 21:41 7,9 C 20,5 C 7,3 C 7,4 C 6,4 C 0,0 C 65 % 70 % 0 % 1016,6 hPa 0,0 l/m 0,0 km/h (0 Bft) N 0 0 min 1,7 C 6,4 C 0,0 km/h (0 Bft)
22.04.2016 21:50 7,7 C 20,5 C 7,2 C 7,2 C 6,2 C 0,0 C 67 % 71 % 0 % 1016,4 hPa 0,0 l/m 0,0 km/h (0 Bft) W-SW 247 0 min 2,0 C 6,2 C 0,0 km/h (0 Bft)
22.04.2016 21:55 7,5 C 20,6 C 6,9 C 7,0 C 5,9 C 0,0 C 67 % 71 % 0 % 1016,4 hPa 0,0 l/m 0,0 km/h (0 Bft) W-SW 247 0 min 1,8 C 5,9 C 0,0 km/h (0 Bft)
22.04.2016 22:00 7,5 C 20,5 C 6,9 C 6,9 C 5,8 C 0,0 C 67 % 72 % 0 % 1016,4 hPa 0,0 l/m 0,0 km/h (0 Bft) W-SW 247 0 min 1,8 C 5,8 C 0,0 km/h (0 Bft)
22.04.2016 22:05 7,2 C 20,5 C 6,9 C 6,7 C 5,6 C 0,0 C 69 % 73 % 0 % 1016,4 hPa 0,0 l/m 0,0 km/h (0 Bft) W-SW 247 0 min 1,9 C 5,6 C 0,0 km/h (0 Bft)
22.04.2016 22:10 7,1 C 20,5 C 6,6 C 6,6 C 5,5 C 0,0 C 69 % 73 % 0 % 1016,4 hPa 0,0 l/m 0,0 km/h (0 Bft) W-SW 247 0 min 1,8 C 5,5 C 0,0 km/h (0 Bft)
22.04.2016 22:15 7,0 C 20,5 C 6,5 C 6,4 C 5,3 C 0,0 C 70 % 74 % 0 % 1016,4 hPa 0,0 l/m 0,0 km/h (0 Bft) SW 225 0 min 1,9 C 5,3 C 0,0 km/h (0 Bft)
22.04.2016 22:20 6,8 C 20,5 C 6,4 C 6,3 C 5,3 C 0,0 C 70 % 75 % 0 % 1016,4 hPa 0,0 l/m 0,0 km/h (0 Bft) W-SW 247 0 min 1,7 C 5,3 C 0,0 km/h (0 Bft)
22.04.2016 22:25 6,7 C 20,5 C 6,2 C 6,2 C 5,1 C 0,0 C 70 % 75 % 0 % 1016,4 hPa 0,0 l/m 0,0 km/h (0 Bft) W-SW 247 0 min 1,6 C 5,1 C 0,0 km/h (0 Bft)
22.04.2016 22:30 6,7 C 20,5 C 6,0 C 6,2 C 5,1 C 0,0 C 71 % 75 % 0 % 1016,3 hPa 0,0 l/m 0,0 km/h (0 Bft) W-SW 247 0 min 1,8 C 5,1 C 0,0 km/h (0 Bft)
22.04.2016 22:35 6,4 C 20,5 C 6,0 C 5,9 C 4,8 C 0,0 C 72 % 76 % 0 % 1016,3 hPa 0,0 l/m 0,0 km/h (0 Bft) SW 225 0 min 1,7 C 4,8 C 0,0 km/h (0 Bft)
22.04.2016 22:40 6,3 C 20,5 C 5,9 C 5,7 C 4,6 C 0,0 C 72 % 76 % 0 % 1016,3 hPa 0,0 l/m 0,0 km/h (0 Bft) S 180 0 min 1,6 C 4,6 C 0,0 km/h (0 Bft)
22.04.2016 22:45 6,1 C 20,5 C 5,7 C 5,5 C 4,4 C 0,0 C 72 % 76 % 0 % 1016,3 hPa 0,0 l/m 0,0 km/h (0 Bft) SW 225 0 min 1,4 C 4,4 C 0,0 km/h (0 Bft)
22.04.2016 22:50 6,0 C 20,5 C 5,5 C 5,5 C 4,4 C 0,0 C 72 % 76 % 0 % 1016,4 hPa 0,0 l/m 0,0 km/h (0 Bft) O-NO 67 0 min 1,3 C 4,4 C 0,0 km/h (0 Bft)
22.04.2016 22:55 5,9 C 20,5 C 5,3 C 5,4 C 4,4 C 0,0 C 73 % 77 % 0 % 1016,4 hPa 0,0 l/m 0,0 km/h (0 Bft) O-NO 67 0 min 1,4 C 4,4 C 0,0 km/h (0 Bft)
22.04.2016 23:00 5,7 C 20,5 C 5,3 C 5,3 C 4,4 C 0,0 C 74 % 77 % 0 % 1016,4 hPa 0,0 l/m 0,0 km/h (0 Bft) O-NO 67 0 min 1,4 C 4,4 C 0,0 km/h (0 Bft)
22.04.2016 23:05 5,6 C 20,5 C 5,3 C 5,2 C 4,4 C 0,0 C 74 % 78 % 0 % 1016,4 hPa 0,0 l/m 0,0 km/h (0 Bft) O-NO 67 0 min 1,3 C 4,4 C 0,0 km/h (0 Bft)
22.04.2016 23:10 5,6 C 20,4 C 5,3 C 5,2 C 4,4 C 0,0 C 74 % 78 % 0 % 1016,2 hPa 0,0 l/m 0,0 km/h (0 Bft) O-NO 67 0 min 1,3 C 4,4 C 0,0 km/h (0 Bft)
22.04.2016 23:15 5,4 C 20,4 C 5,3 C 5,0 C 4,2 C 0,0 C 75 % 79 % 0 % 1016,2 hPa 0,0 l/m 0,0 km/h (0 Bft) W-NW 292 0 min 1,3 C 4,2 C 0,0 km/h (0 Bft)
22.04.2016 23:20 5,5 C 20,4 C 5,3 C 5,1 C 4,2 C 0,0 C 75 % 79 % 0 % 1016,2 hPa 0,0 l/m 0,0 km/h (0 Bft) W-SW 247 0 min 1,4 C 4,2 C 0,0 km/h (0 Bft)
22.04.2016 23:25 5,2 C 20,4 C 5,3 C 4,8 C 4,1 C 0,0 C 76 % 79 % 0 % 1016,2 hPa 0,0 l/m 0,0 km/h (0 Bft) S-SW 202 0 min 1,3 C 4,1 C 0,0 km/h (0 Bft)
22.04.2016 23:30 5,2 C 20,4 C 5,2 C 4,8 C 4,1 C 0,0 C 76 % 79 % 0 % 1016,1 hPa 0,0 l/m 0,0 km/h (0 Bft) S-SW 202 0 min 1,3 C 4,1 C 0,0 km/h (0 Bft)
22.04.2016 23:35 5,1 C 20,4 C 5,3 C 4,7 C 4,0 C 0,0 C 76 % 80 % 0 % 1016,1 hPa 0,0 l/m 0,0 km/h (0 Bft) S-SW 202 0 min 1,2 C 4,0 C 0,0 km/h (0 Bft)
22.04.2016 23:40 5,1 C 20,4 C 5,2 C 4,7 C 4,0 C 0,0 C 76 % 80 % 0 % 1016,1 hPa 0,0 l/m 0,0 km/h (0 Bft) S-SW 202 0 min 1,2 C 4,0 C 0,0 km/h (0 Bft)
22.04.2016 23:45 4,8 C 20,4 C 5,2 C 4,5 C 3,9 C 0,0 C 77 % 81 % 0 % 1016,1 hPa 0,0 l/m 0,0 km/h (0 Bft) SW 225 0 min 1,1 C 3,9 C 0,0 km/h (0 Bft)
22.04.2016 23:50 4,9 C 20,4 C 5,2 C 4,6 C 3,9 C 0,0 C 77 % 81 % 0 % 1015,9 hPa 0,0 l/m 0,0 km/h (0 Bft) S-SW 202 0 min 1,2 C 3,9 C 0,0 km/h (0 Bft)
22.04.2016 23:55 4,7 C 20,4 C 5,1 C 4,4 C 3,9 C 0,0 C 77 % 81 % 0 % 1015,9 hPa 0,0 l/m 0,0 km/h (0 Bft) S-SW 202 0 min 1,0 C 3,9 C 0,0 km/h (0 Bft)
_ Min-Zeit 06:10 09:00 06:05 06:10 06:05 00:00 15:30 17:10 00:00 23:50 - 00:00 - - - 06:10 06:05 00:00
Minimum _ -0,8 C 19,1 C 0,7 C -0,9 C -1,0 C 0,0 C 36 % 37 % 0 % 1015,9 hPa - 0,0 km/h (0 Bft) - - - -2,8 C -1,0 C 0,0 km/h (0 Bft)
_ Max-Zeit 16:10 00:00 14:00 16:45 16:45 08:15 07:25 05:05 07:05 08:10 00:00 15:35 - - 09:50 11:20 16:45 11:05
Maximum _ 14,9 C 20,8 C 18,3 C 19,9 C 19,9 C 11,3 C 90 % 90 % 100 % 1022,0 hPa 0,0 l/m 7,4 km/h
SW (2 Bft)
- - 9 min 4,7 C 19,9 C 16,4 km/h
W-SW (3 Bft)
Durchschnitt _ 7,3 C 20,0 C 8,8 C 10,0 C 9,8 C 2,8 C 67 % 68 % 50 % 1019,6 hPa #0,0 l/m 1,7 km/h (1 Bft) W-SW - #11:25 h 0,8 C 9,8 C 2,4 km/h (1 Bft)
2016 www.wetterstation-wechselburg.de